Aeroporto :
LOGIN :

Iscrizione | Disclaimer

   EN    FR    IT 

 










Sommario :    VFR   VFR Marginale   IFR   IFR Intensivo   IFR Molto Intensivo
Visibilità : 
Base nubi : 
>= 8 km
>= 3000ft
5 / 8 km
1000 / 3000 ft
1500m / 5 km
500 / 1000 ft
800 / 1500m
200 / 500 ft
< 800m
< 200 ft
Simboli :   Temporali  Nebbia  Neve Forte  Precipitazioni Forti  Vento > 20 kt
SIGMETs :   Varie  Temporali  Ghiacco  Turbolenza  Onda orograficha  Ceneri Vulcaniche






- Altitudine del aeroporto : 74 ft
- Codice IATA : EIN


EHEH - Eindhoven

ULTIMO METAR :
  • 090725Z AUTO 03006KT 340V050 9999 NCD 20/14 Q1028 BLU NOSIG

METARs OBSOLETI :
  • 090655Z AUTO 02008KT 010V070 9999 NCD 18/14 Q1028 BLU NOSIG
  • 090625Z AUTO 03008KT 360V060 9999 NCD 17/14 Q1027 BLU NOSIG
  • 090555Z AUTO 02007KT 330V060 9999 NCD 16/13 Q1027 BLU NOSIG
  • 090525Z AUTO 02006KT 330V040 9999 NCD 15/13 Q1027 BLU NOSIG
  • 090455Z AUTO 02005KT 9999 NCD 14/12 Q1027 BLU NOSIG

TAF TAF EHEH
Valido dal 09 a 06 ore il 10 a 12 ore UTC


090515Z 0906/1012 02005KT CAVOK
TEMPO 0909/0917 04008G18KT



MetMap, La meteo Aeronautica in un colpo d'occhio ! - Copyright ORBIFLY Dicembre 2007 - Disclaimer

ORBIFLY MET'MAP TEAM :

Programmazione e sviluppo : Alexandra Zaïnal
Concezione : Baudouin d'Aumeries
Supporto tecnico e logistico : Manuel Goepfert
Aiuto : Marc-Olivier Méhu
Aiuto per la traduzione : Arnaldo La Scala




FONTI E CREDITI :

   NOAA